Time;durP1;ratioP1;P1;durP2;ratioP2;P2;SDS_P1;SDS_P2;PMS_P1;PMS_P2;Temp;Humidity;BMP_temperature;BMP_pressure;BME280_temperature;BME280_humidity;BME280_pressure;Samples;Min_cycle;Max_cycle;Signal;HPM_P1;HPM_P2
2022/04/15 04:00:11;;;;;;;25.23;20.33;;;;;;;;;;6089970;23;21858;31
2022/04/15 04:02:37;;;;;;;27.77;21.90;;;8.70;96.30;;;;;;4895169;29;20497;-72
2022/04/15 04:05:04;;;;;;;28.37;23.00;;;8.70;96.30;;;;;;4897750;29;20421;-76
2022/04/15 04:07:30;;;;;;;36.93;26.20;;;8.70;96.30;;;;;;4897857;29;20188;-72
2022/04/15 04:09:55;;;;;;;34.40;25.30;;;8.70;96.30;;;;;;4898308;29;20799;-72
2022/04/15 04:12:21;;;;;;;36.93;27.00;;;8.80;96.30;;;;;;4915024;29;20235;-73
2022/04/15 04:14:46;;;;;;;36.70;26.90;;;8.90;96.30;;;;;;4920017;29;20184;-75
2022/04/15 04:17:12;;;;;;;38.67;28.60;;;9.00;96.30;;;;;;4934221;29;20235;-74
2022/04/15 04:19:37;;;;;;;41.63;25.90;;;9.00;96.30;;;;;;4931345;29;20195;-74
2022/04/15 04:45:22;;;;;;;32.87;26.53;;;;;;;;;;5827744;23;20488;-73
2022/04/15 04:47:48;;;;;;;36.53;28.27;;;8.60;96.30;;;;;;4954775;28;20410;-74
2022/04/15 04:50:14;;;;;;;32.17;27.07;;;8.70;96.30;;;;;;4973776;28;20537;-73
2022/04/15 04:52:40;;;;;;;35.17;26.70;;;8.80;96.30;;;;;;4974736;28;20456;-73
2022/04/15 04:55:07;;;;;;;36.17;30.13;;;8.80;96.30;;;;;;4992659;28;20696;-73
2022/04/15 04:57:33;;;;;;;34.27;28.47;;;8.90;96.30;;;;;;4970510;28;20830;-74
2022/04/15 04:59:59;;;;;;;38.47;28.37;;;;;;;;;;4967065;28;20417;-80
2022/04/15 05:15:22;;;;;;;37.47;29.53;;;;;;;;;;6000799;23;20429;-74
2022/04/15 05:17:48;;;;;;;37.33;29.67;;;9.00;96.30;;;;;;4992114;28;20463;-74
2022/04/15 05:20:14;;;;;;;34.87;28.80;;;;;;;;;;4992907;28;20227;-74
2022/04/15 05:22:39;;;;;;;40.63;30.20;;;9.00;96.30;;;;;;4983139;28;20197;-74
2022/04/15 05:25:05;;;;;;;37.37;30.37;;;9.00;96.30;;;;;;4991296;28;20209;-74
2022/04/15 05:27:32;;;;;;;33.13;27.50;;;;;;;;;;4989250;28;20197;-77
2022/04/15 05:29:57;;;;;;;34.97;27.30;;;9.00;96.30;;;;;;4995463;28;20412;-77
2022/04/15 05:32:23;;;;;;;40.33;29.23;;;;;;;;;;5011818;28;20828;-79
2022/04/15 05:34:49;;;;;;;36.13;28.73;;;8.90;96.30;;;;;;5003310;28;20181;-74
2022/04/15 05:37:15;;;;;;;34.77;25.67;;;;;;;;;;5019940;28;20441;-75
2022/04/15 05:39:40;;;;;;;39.40;28.83;;;9.00;96.30;;;;;;4999376;28;20177;-75
2022/04/15 05:47:10;;;;;;;45.73;25.37;;;;;;;;;;4939926;29;20475;-76
2022/04/15 05:49:36;;;;;;;37.77;26.60;;;;;;;;;;4942617;28;20425;-74
2022/04/15 05:52:02;;;;;;;29.60;18.67;;;8.50;96.30;;;;;;4956800;29;20980;-74
2022/04/15 05:54:28;;;;;;;22.43;17.13;;;8.40;96.30;;;;;;4956884;29;20332;-76
2022/04/15 05:56:53;;;;;;;25.50;17.47;;;8.30;96.30;;;;;;4939591;29;20505;-74
2022/04/15 05:59:20;;;;;;;24.83;16.87;;;8.20;96.30;;;;;;4939742;29;20663;-77
2022/04/15 06:32:53;;;;;;;22.67;14.20;;;8.00;96.30;;;;;;5813444;23;20501;-75
2022/04/15 06:35:19;;;;;;;28.03;18.53;;;;;;;;;;4964919;28;20429;-78
2022/04/15 06:37:44;;;;;;;27.33;20.70;;;7.90;96.30;;;;;;4965555;28;20650;-78
2022/04/15 06:40:11;;;;;;;26.03;19.90;;;7.90;96.30;;;;;;4961537;28;20212;-78
2022/04/15 06:42:37;;;;;;;29.93;20.77;;;7.90;96.30;;;;;;4945780;29;20210;-78
2022/04/15 06:45:03;;;;;;;28.53;18.87;;;7.80;96.30;;;;;;4952096;29;20947;-79
2022/04/15 06:47:29;;;;;;;31.57;19.63;;;;;;;;;;4951591;29;20179;-78
2022/04/15 06:49:54;;;;;;;26.63;18.27;;;7.70;96.30;;;;;;4951555;29;20431;-77
2022/04/15 06:52:21;;;;;;;20.77;16.40;;;7.70;96.30;;;;;;4936801;29;20564;-77
2022/04/15 06:54:47;;;;;;;24.47;18.07;;;7.60;96.30;;;;;;4952241;29;20187;-77
2022/04/15 06:57:13;;;;;;;18.63;16.00;;;7.50;96.30;;;;;;4953952;29;20430;-77
2022/04/15 06:59:39;;;;;;;24.53;16.97;;;;;;;;;;4954515;29;20418;-76
2022/04/15 07:02:05;;;;;;;24.10;17.60;;;7.50;96.30;;;;;;4953748;28;20569;-77
2022/04/15 07:04:31;;;;;;;20.27;15.70;;;7.50;96.30;;;;;;4955937;29;20171;-78
2022/04/15 07:06:57;;;;;;;20.30;15.70;;;7.50;96.30;;;;;;4956039;28;20491;-77
2022/04/15 07:09:23;;;;;;;16.73;15.00;;;;;;;;;;4955366;29;20493;-76
2022/04/15 07:11:49;;;;;;;22.50;15.67;;;7.40;96.30;;;;;;4955625;28;20458;-77
2022/04/15 07:14:14;;;;;;;17.97;14.03;;;7.40;96.30;;;;;;4955715;29;20462;-78
2022/04/15 07:16:40;;;;;;;16.63;14.13;;;7.40;96.30;;;;;;4955808;29;20179;-77
2022/04/15 07:19:07;;;;;;;22.63;14.20;;;7.40;96.30;;;;;;4955671;29;20183;-77
2022/04/15 07:21:36;;;;;;;15.90;13.70;;;7.40;96.30;;;;;;4955639;28;20297;-77
2022/04/15 07:24:03;;;;;;;18.43;14.00;;;7.40;96.30;;;;;;4955515;29;20907;-77
2022/04/15 07:26:29;;;;;;;17.43;14.20;;;7.50;96.30;;;;;;4956051;29;20473;-78
2022/04/15 07:28:54;;;;;;;16.13;14.53;;;7.50;96.30;;;;;;4955427;29;20419;-79
2022/04/15 07:31:20;;;;;;;17.27;12.67;;;7.50;96.30;;;;;;4944392;29;20219;-78
2022/04/15 07:33:48;;;;;;;16.03;14.00;;;7.50;96.30;;;;;;4950873;29;20273;-78
2022/04/15 07:38:58;;;;;;;19.77;14.50;;;7.50;96.30;;;;;;4956850;29;20421;-79
2022/04/15 07:41:24;;;;;;;17.30;12.47;;;7.50;96.30;;;;;;4955165;28;20443;-78
2022/04/15 07:43:49;;;;;;;20.90;13.00;;;7.40;96.30;;;;;;4956187;29;20519;-78
2022/04/15 07:46:16;;;;;;;15.60;12.10;;;7.30;96.30;;;;;;4955084;29;20187;-78
2022/04/15 07:48:41;;;;;;;17.60;13.57;;;7.30;96.30;;;;;;4955842;29;20171;-75
2022/04/15 07:51:07;;;;;;;19.80;14.23;;;7.30;96.30;;;;;;4955392;28;20847;-75
2022/04/15 07:53:33;;;;;;;18.07;13.10;;;7.30;96.30;;;;;;4960346;29;20298;-75
2022/04/15 07:55:58;;;;;;;19.87;13.77;;;7.20;96.30;;;;;;4954209;29;20238;-75
2022/04/15 07:58:24;;;;;;;17.60;14.90;;;7.20;96.30;;;;;;4954985;29;20178;-74
2022/04/15 08:00:50;;;;;;;19.20;13.70;;;;;;;;;;4954480;28;20238;-74
2022/04/15 08:03:20;;;;;;;18.17;14.23;;;7.20;96.30;;;;;;4954136;29;20183;-76
2022/04/15 08:05:46;;;;;;;20.80;14.80;;;7.10;96.30;;;;;;4938519;28;20180;-75
2022/04/15 08:08:12;;;;;;;20.03;13.10;;;;;;;;;;4943491;29;20803;-75
2022/04/15 08:10:37;;;;;;;17.53;14.50;;;7.00;96.30;;;;;;4948386;28;20522;-78
2022/04/15 08:13:03;;;;;;;19.37;13.97;;;7.00;96.30;;;;;;4943961;28;20590;-77
2022/04/15 08:15:29;;;;;;;25.13;15.00;;;7.00;96.30;;;;;;4955500;28;20187;-77
2022/04/15 08:17:54;;;;;;;29.07;13.03;;;6.90;96.30;;;;;;4955184;29;20425;-75
2022/04/15 08:20:20;;;;;;;98.10;12.00;;;6.80;96.30;;;;;;4955231;28;20186;-75
2022/04/15 08:22:46;;;;;;;86.67;8.90;;;;;;;;;;4955530;29;20269;-76
2022/04/15 08:25:11;;;;;;;239.70;14.90;;;6.50;96.30;;;;;;4955020;29;20266;-77
2022/04/15 08:27:37;;;;;;;60.00;9.93;;;6.40;96.30;;;;;;4953158;29;20244;-74
2022/04/15 08:30:04;;;;;;;112.47;11.10;;;6.30;96.30;;;;;;4953456;29;20809;-75
2022/04/15 08:32:33;;;;;;;28.93;11.07;;;6.10;96.30;;;;;;4953287;28;20218;-74
2022/04/15 08:35:07;;;;;;;13.37;8.53;;;6.10;96.30;;;;;;4953070;29;20415;-76
2022/04/15 08:37:33;;;;;;;17.27;13.43;;;6.00;96.30;;;;;;4942881;28;20419;-75
2022/04/15 08:40:00;;;;;;;18.73;13.10;;;6.10;96.30;;;;;;4934224;29;20431;-75
2022/04/15 08:42:26;;;;;;;22.43;13.03;;;6.10;96.30;;;;;;4942184;29;20440;-78
2022/04/15 08:44:53;;;;;;;21.97;14.50;;;6.20;96.30;;;;;;4948201;29;20430;-76
2022/04/15 08:47:19;;;;;;;20.97;14.00;;;6.20;96.30;;;;;;4941055;28;20918;-77
2022/04/15 08:49:46;;;;;;;35.10;15.77;;;6.20;96.30;;;;;;4946755;29;20826;-74
2022/04/15 08:52:15;;;;;;;20.10;13.50;;;6.20;96.30;;;;;;4946707;28;20435;-75
2022/04/15 08:54:41;;;;;;;20.20;14.03;;;6.20;96.30;;;;;;4935282;29;20445;-76
2022/04/15 08:57:07;;;;;;;19.90;14.00;;;6.20;96.30;;;;;;4955042;29;20427;-76
2022/04/15 08:59:33;;;;;;;15.73;10.63;;;6.20;96.30;;;;;;4937691;29;20632;-74
2022/04/15 09:01:58;;;;;;;14.87;11.23;;;6.20;96.30;;;;;;4953089;29;20455;-74
2022/04/15 09:04:25;;;;;;;17.17;12.20;;;6.20;96.30;;;;;;4953218;28;20225;-75
2022/04/15 09:06:59;;;;;;;15.07;12.97;;;6.20;96.30;;;;;;4953233;28;20175;-74
2022/04/15 09:09:35;;;;;;;14.53;11.57;;;6.30;96.30;;;;;;4952239;28;20961;-73
2022/04/15 09:50:46;;;;;;;12.93;10.40;;;;;;;;;;4974775;28;20485;-79
2022/04/15 09:53:16;;;;;;;13.77;10.60;;;6.50;96.30;;;;;;4955130;28;20995;-77
2022/04/15 09:55:52;;;;;;;10.27;9.17;;;6.50;96.30;;;;;;4972706;28;20460;-80
2022/04/15 09:58:28;;;;;;;18.10;9.87;;;6.40;96.30;;;;;;4973276;28;20452;-80
2022/04/15 10:00:55;;;;;;;12.30;9.20;;;6.40;96.30;;;;;;4962164;28;20436;-81
2022/04/15 10:03:26;;;;;;;12.50;9.27;;;6.50;96.30;;;;;;4974028;28;20546;-79
2022/04/15 10:05:54;;;;;;;10.30;8.43;;;6.50;96.30;;;;;;4956922;28;20484;-80
2022/04/15 10:08:25;;;;;;;11.77;8.97;;;6.50;96.30;;;;;;4956435;28;20445;-80
2022/04/15 10:10:52;;;;;;;9.97;7.83;;;6.50;96.30;;;;;;4956020;28;20457;-80
2022/04/15 10:13:20;;;;;;;12.90;9.97;;;6.50;96.30;;;;;;4952899;28;20506;-79
2022/04/15 10:15:47;;;;;;;12.07;9.23;;;6.60;96.30;;;;;;4955487;28;20419;-78
2022/04/15 10:18:13;;;;;;;11.83;8.37;;;6.60;96.30;;;;;;4977324;28;20774;-76
2022/04/15 10:20:39;;;;;;;8.73;7.40;;;6.50;96.30;;;;;;4952945;29;20509;-76
2022/04/15 10:23:06;;;;;;;8.27;7.23;;;6.60;96.30;;;;;;4935960;29;20985;-76
2022/04/15 10:25:33;;;;;;;14.03;8.10;;;6.60;96.30;;;;;;4953071;29;20544;-77
2022/04/15 10:28:11;;;;;;;6.40;5.20;;;6.60;96.30;;;;;;4957883;28;20472;-75
2022/04/15 10:30:38;;;;;;;8.90;7.63;;;6.60;96.30;;;;;;4972224;28;20520;-75
2022/04/15 10:33:03;;;;;;;9.27;6.70;;;6.70;96.30;;;;;;4955071;28;20464;-76
2022/04/15 10:35:32;;;;;;;6.17;4.27;;;6.60;96.30;;;;;;4955016;28;20500;-76
2022/04/15 10:38:10;;;;;;;7.87;4.87;;;6.50;96.30;;;;;;4957230;28;20174;-76
2022/04/15 10:40:41;;;;;;;5.30;4.40;;;6.50;96.30;;;;;;4975658;28;20448;-75
2022/04/15 10:43:18;;;;;;;6.80;4.43;;;6.60;96.30;;;;;;4958534;28;20413;-77
2022/04/15 10:45:44;;;;;;;7.97;5.07;;;6.60;96.30;;;;;;4970362;28;20499;-75
2022/04/15 10:48:10;;;;;;;5.90;4.70;;;6.60;96.30;;;;;;4995136;28;20499;-75
2022/04/15 10:50:38;;;;;;;8.10;4.60;;;6.60;96.30;;;;;;4977728;28;20236;-76
2022/04/15 10:53:39;;;;;;;5.23;4.47;;;6.60;96.30;;;;;;4995036;28;20245;-75
2022/04/15 10:56:08;;;;;;;6.60;4.43;;;6.50;96.30;;;;;;4897160;29;20573;-76
2022/04/15 11:01:51;;;;;;;4.40;4.00;;;6.50;96.30;;;;;;4977222;28;20433;-80
2022/04/15 11:04:22;;;;;;;5.20;4.30;;;6.50;96.30;;;;;;4975919;28;20471;-75
2022/04/15 11:06:48;;;;;;;4.60;4.20;;;;;;;;;;4972973;28;20414;-75
2022/04/15 11:09:15;;;;;;;3.40;3.10;;;6.50;96.30;;;;;;4974904;28;20510;-75
2022/04/15 11:11:44;;;;;;;5.30;4.50;;;6.50;96.30;;;;;;4975208;28;20482;-74
2022/04/15 11:14:13;;;;;;;4.80;3.83;;;;;;;;;;4958200;28;20477;-75
2022/04/15 11:16:42;;;;;;;5.53;4.90;;;6.40;96.30;;;;;;4957992;28;20513;-75
2022/04/15 11:19:08;;;;;;;3.77;3.43;;;6.40;96.30;;;;;;4957807;28;20849;-75
2022/04/15 11:21:39;;;;;;;5.27;4.00;;;6.30;96.30;;;;;;4975048;28;20429;-76
2022/04/15 11:24:05;;;;;;;3.77;3.07;;;6.30;96.30;;;;;;4957768;28;20461;-74
2022/04/15 11:26:32;;;;;;;4.90;3.23;;;6.20;96.30;;;;;;4957612;28;20513;-75
2022/04/15 11:28:59;;;;;;;5.10;2.60;;;6.20;96.30;;;;;;4974288;28;20781;-76
2022/04/15 11:31:26;;;;;;;2.80;2.60;;;6.20;96.30;;;;;;4974894;28;20433;-75
2022/04/15 11:33:53;;;;;;;2.70;2.50;;;6.20;96.30;;;;;;4974780;28;20547;-75
2022/04/15 11:36:20;;;;;;;3.17;2.67;;;6.30;96.30;;;;;;4958032;28;20426;-75
2022/04/15 11:38:47;;;;;;;3.40;3.07;;;6.30;96.30;;;;;;4957242;28;20472;-80
2022/04/15 11:41:21;;;;;;;4.00;2.80;;;6.30;96.30;;;;;;4975864;28;20448;-79
2022/04/15 11:44:01;;;;;;;4.90;2.93;;;6.40;96.30;;;;;;4955550;28;20425;-79
2022/04/15 11:46:48;;;;;;;3.60;3.30;;;6.50;96.30;;;;;;4965529;28;20940;-79
2022/04/15 11:49:15;;;;;;;2.90;2.43;;;6.70;96.30;;;;;;4974968;28;20445;-80
2022/04/15 11:51:47;;;;;;;2.00;1.90;;;6.70;96.30;;;;;;4957849;28;20450;-76
2022/04/15 11:54:13;;;;;;;3.83;2.60;;;;;;;;;;4974434;28;20449;-79
2022/04/15 11:56:40;;;;;;;3.07;2.00;;;6.80;96.30;;;;;;4957143;28;21116;-79
2022/04/15 11:59:08;;;;;;;2.37;2.17;;;6.80;96.30;;;;;;4956230;28;20433;-79
2022/04/15 12:01:34;;;;;;;2.37;2.17;;;6.80;96.30;;;;;;4957019;28;20434;-76
2022/04/15 12:03:59;;;;;;;3.70;2.57;;;6.90;96.30;;;;;;4974184;28;20452;-76
2022/04/15 12:06:26;;;;;;;3.00;2.13;;;6.90;96.30;;;;;;4974199;28;20174;-75
2022/04/15 12:08:52;;;;;;;3.80;2.03;;;6.80;96.30;;;;;;4973718;28;20182;-79
2022/04/15 12:11:23;;;;;;;2.30;2.10;;;6.70;96.30;;;;;;4980208;28;20440;-79
2022/04/15 12:14:01;;;;;;;5.57;2.30;;;6.70;96.30;;;;;;4957254;28;20521;-80
2022/04/15 12:16:29;;;;;;;3.60;2.20;;;6.70;96.30;;;;;;4957128;28;20461;-79
2022/04/15 12:18:56;;;;;;;2.30;2.10;;;;;;;;;;4956560;28;20410;-79
2022/04/15 12:21:22;;;;;;;3.90;2.53;;;6.90;96.30;;;;;;4974168;28;20440;-79
2022/04/15 12:24:09;;;;;;;2.60;2.40;;;7.10;96.30;;;;;;4974081;28;20410;-79
2022/04/15 12:26:48;;;;;;;3.67;2.40;;;7.50;96.30;;;;;;4956883;28;20174;-80
2022/04/15 12:32:34;;;;;;;2.90;2.50;;;8.10;96.30;;;;;;4973969;28;20433;-76
2022/04/15 12:34:59;;;;;;;2.87;2.40;;;8.40;96.30;;;;;;4973986;28;20401;-75
2022/04/15 12:37:34;;;;;;;2.77;2.30;;;8.50;96.30;;;;;;4973763;28;20901;-76
2022/04/15 12:40:14;;;;;;;2.83;2.30;;;8.70;96.30;;;;;;4973834;28;20178;-76
2022/04/15 12:42:42;;;;;;;3.43;1.93;;;8.90;96.30;;;;;;4956361;28;20512;-75
2022/04/15 12:45:10;;;;;;;2.57;2.37;;;9.10;96.30;;;;;;4974075;28;20767;-75
2022/04/15 12:47:37;;;;;;;3.67;2.37;;;9.20;96.30;;;;;;4973531;28;20406;-75
2022/04/15 12:50:36;;;;;;;2.33;2.13;;;9.10;96.30;;;;;;4956420;28;20491;-77
2022/04/15 12:53:22;;;;;;;3.20;2.57;;;8.90;96.30;;;;;;4920886;28;20925;-75
2022/04/15 12:55:49;;;;;;;9.97;2.30;;;9.00;96.30;;;;;;4973456;28;20417;-75
2022/04/15 12:58:23;;;;;;;2.73;2.40;;;8.90;96.30;;;;;;4956282;28;20424;-75
2022/04/15 13:00:51;;;;;;;4.27;2.00;;;8.60;96.30;;;;;;4955564;28;20464;-77
2022/04/15 13:03:20;;;;;;;2.93;2.30;;;8.30;96.30;;;;;;4973466;28;20424;-76
2022/04/15 13:05:49;;;;;;;2.77;2.57;;;8.30;96.30;;;;;;4973419;28;20418;-74
2022/04/15 13:08:15;;;;;;;2.60;2.43;;;8.20;96.30;;;;;;4972948;28;20757;-75
2022/04/15 13:10:42;;;;;;;2.87;2.67;;;8.30;96.30;;;;;;4972936;28;20446;-76
2022/04/15 13:13:08;;;;;;;3.30;3.07;;;8.60;96.30;;;;;;4955683;28;20500;-76
2022/04/15 13:15:33;;;;;;;3.10;2.60;;;8.60;96.30;;;;;;4959033;28;20491;-78
2022/04/15 13:17:59;;;;;;;4.47;2.97;;;8.50;96.30;;;;;;4973293;28;20475;-75
2022/04/15 13:20:25;;;;;;;3.47;2.80;;;;;;;;;;4973310;28;20653;-75
2022/04/15 13:22:50;;;;;;;2.97;2.70;;;8.30;96.30;;;;;;4955955;28;20174;-75
2022/04/15 13:25:16;;;;;;;2.70;2.50;;;8.30;96.30;;;;;;4973229;28;20178;-76
2022/04/15 13:27:41;;;;;;;2.87;2.67;;;8.10;96.30;;;;;;4973360;28;20206;-74
2022/04/15 13:30:07;;;;;;;4.40;2.67;;;7.80;96.30;;;;;;4973383;28;20178;-74
2022/04/15 13:32:33;;;;;;;4.57;2.50;;;7.80;96.30;;;;;;4972890;28;20567;-75
2022/04/15 13:34:58;;;;;;;3.10;2.90;;;7.70;96.30;;;;;;4973173;28;20460;-75
2022/04/15 13:37:24;;;;;;;5.20;2.70;;;7.80;96.30;;;;;;4955984;28;20170;-75
2022/04/15 13:39:49;;;;;;;5.83;3.80;;;7.70;96.30;;;;;;4972885;28;20174;-74
2022/04/15 13:42:15;;;;;;;3.97;3.67;;;7.50;96.30;;;;;;4973009;28;20217;-75
2022/04/15 13:44:40;;;;;;;4.33;3.97;;;7.50;96.30;;;;;;4955638;28;20704;-77
2022/04/15 13:47:06;;;;;;;4.20;3.90;;;7.50;96.30;;;;;;4955498;28;20206;-74
2022/04/15 13:49:33;;;;;;;4.30;3.80;;;7.50;96.30;;;;;;4972659;28;20202;-75
2022/04/15 13:51:59;;;;;;;3.50;3.20;;;;;;;;;;4952186;29;20205;-76
2022/04/15 13:57:09;;;;;;;3.83;3.30;;;;;;;;;;4973165;28;20924;-76
2022/04/15 13:59:35;;;;;;;5.20;3.70;;;7.60;96.30;;;;;;4955285;28;20414;-76
2022/04/15 14:02:00;;;;;;;3.93;3.40;;;7.80;96.30;;;;;;4972788;28;20245;-77
2022/04/15 14:04:26;;;;;;;5.00;3.83;;;7.80;96.30;;;;;;4971550;28;20225;-77
2022/04/15 14:06:51;;;;;;;4.00;3.70;;;7.70;96.30;;;;;;4953237;29;20183;-76
2022/04/15 14:09:19;;;;;;;3.90;3.60;;;7.70;96.30;;;;;;4952893;29;20567;-76
2022/04/15 14:11:47;;;;;;;4.80;3.20;;;7.60;96.30;;;;;;4955816;28;20194;-77
2022/04/15 14:14:14;;;;;;;8.90;3.40;;;7.60;96.30;;;;;;4956963;29;20457;-76
2022/04/15 14:16:41;;;;;;;3.50;3.20;;;7.70;96.30;;;;;;4948388;28;20426;-75
2022/04/15 14:19:09;;;;;;;5.40;4.40;;;7.80;96.30;;;;;;4957899;28;20992;-75
2022/04/15 14:21:35;;;;;;;5.10;4.60;;;7.80;96.30;;;;;;4977253;28;20429;-75
2022/04/15 14:24:01;;;;;;;4.80;4.40;;;7.70;96.30;;;;;;4976702;28;20416;-75
2022/04/15 14:26:27;;;;;;;5.33;4.83;;;7.70;96.30;;;;;;4976541;28;20861;-75
2022/04/15 14:28:53;;;;;;;4.30;3.90;;;7.60;96.30;;;;;;4975924;28;20414;-75
2022/04/15 14:31:19;;;;;;;9.87;4.43;;;7.50;96.30;;;;;;4976109;28;20286;-75
2022/04/15 14:33:45;;;;;;;4.30;3.90;;;7.50;96.30;;;;;;4975898;28;20697;-75
2022/04/15 14:36:11;;;;;;;4.30;3.90;;;7.50;96.30;;;;;;4976274;28;20413;-76
2022/04/15 14:38:38;;;;;;;3.63;3.33;;;7.50;96.30;;;;;;4975892;28;20261;-75
2022/04/15 14:41:07;;;;;;;4.00;3.63;;;7.30;96.30;;;;;;4976035;28;20425;-75
2022/04/15 14:43:40;;;;;;;4.17;3.80;;;7.30;96.30;;;;;;4975739;28;20417;-75
2022/04/15 14:46:06;;;;;;;4.63;4.13;;;7.30;96.30;;;;;;4958329;28;20465;-74
2022/04/15 14:48:33;;;;;;;4.63;3.50;;;7.30;96.30;;;;;;4975573;28;20417;-75
2022/04/15 14:51:00;;;;;;;4.20;3.77;;;7.20;96.30;;;;;;4975646;28;20449;-75
2022/04/15 14:53:34;;;;;;;4.70;3.80;;;7.30;96.30;;;;;;4975756;28;20556;-74
2022/04/15 14:56:01;;;;;;;4.10;3.80;;;7.40;96.30;;;;;;4975642;28;20413;-74
2022/04/15 14:58:27;;;;;;;5.63;4.27;;;7.30;96.30;;;;;;4976031;28;20459;-76
2022/04/15 16:08:08;;;;;;;7.13;6.43;;;6.70;96.30;;;;;;4954836;29;20485;-79
2022/04/15 16:10:34;;;;;;;7.30;6.13;;;;;;;;;;4938648;28;20446;-79
2022/04/15 16:13:01;;;;;;;8.50;6.40;;;6.80;96.30;;;;;;4938699;29;20969;-79
2022/04/15 16:15:26;;;;;;;7.10;6.40;;;6.80;96.30;;;;;;4956075;29;20415;-80
2022/04/15 16:17:52;;;;;;;10.07;7.27;;;6.80;96.30;;;;;;4938680;29;20425;-79
2022/04/15 16:20:18;;;;;;;8.60;7.00;;;;;;;;;;4956810;28;20202;-80
2022/04/15 16:22:43;;;;;;;7.60;6.60;;;6.70;96.30;;;;;;4939354;29;20274;-80
2022/04/15 16:25:09;;;;;;;8.53;6.80;;;6.70;96.30;;;;;;4947146;28;20624;-79
2022/04/15 16:27:36;;;;;;;8.57;7.67;;;6.70;96.30;;;;;;4950242;28;20187;-78
2022/04/15 16:30:03;;;;;;;8.00;7.20;;;6.60;96.30;;;;;;4956119;28;20182;-76
2022/04/15 16:32:29;;;;;;;7.47;6.67;;;;;;;;;;4954397;29;20442;-77
2022/04/15 16:34:55;;;;;;;9.27;6.97;;;;;;;;;;4950837;29;20837;-76
2022/04/15 16:37:20;;;;;;;8.93;7.50;;;6.60;96.30;;;;;;4937142;29;20934;-77
2022/04/15 16:39:46;;;;;;;6.87;6.20;;;;;;;;;;4934564;29;20486;-75
2022/04/15 16:42:12;;;;;;;9.90;5.90;;;6.60;96.30;;;;;;4950050;28;20210;-77
2022/04/15 16:44:37;;;;;;;6.07;5.37;;;6.60;96.30;;;;;;4937330;29;20197;-76
2022/04/15 16:47:03;;;;;;;7.10;6.30;;;6.60;96.30;;;;;;4937338;29;20542;-77
2022/04/15 16:49:29;;;;;;;7.40;6.03;;;6.60;96.30;;;;;;4954273;29;20175;-77
2022/04/15 16:51:57;;;;;;;5.97;5.20;;;6.50;96.30;;;;;;4937159;29;20202;-77
2022/04/15 16:59:51;;;;;;;5.90;5.10;;;;;;;;;;4954639;29;20499;-77
2022/04/15 17:02:18;;;;;;;4.77;4.37;;;;;;;;;;4958559;28;20529;-77
2022/04/15 17:04:44;;;;;;;5.70;4.20;;;;;;;;;;4939509;28;20426;-77
2022/04/15 17:07:09;;;;;;;6.17;5.07;;;6.40;96.30;;;;;;4955411;28;20449;-77
2022/04/15 17:09:35;;;;;;;5.10;4.40;;;6.40;96.30;;;;;;4953922;29;20190;-77
2022/04/15 17:12:01;;;;;;;4.33;3.93;;;6.40;96.30;;;;;;4953905;28;20206;-76
2022/04/15 17:14:26;;;;;;;6.90;4.80;;;6.40;96.30;;;;;;4953993;29;20207;-77
2022/04/15 17:16:52;;;;;;;4.90;4.40;;;6.40;96.30;;;;;;4954050;29;20286;-78
2022/04/15 17:19:17;;;;;;;5.73;4.33;;;6.30;96.30;;;;;;4968609;28;20182;-78
2022/04/15 17:21:43;;;;;;;4.50;4.10;;;6.40;96.30;;;;;;4953946;29;20209;-78
2022/04/15 17:24:09;;;;;;;5.20;4.70;;;6.30;96.30;;;;;;4954423;29;20179;-77
2022/04/15 17:26:35;;;;;;;6.70;4.50;;;6.30;96.30;;;;;;4952918;29;20181;-78
2022/04/15 17:29:01;;;;;;;5.43;4.33;;;6.30;96.30;;;;;;4935093;29;20818;-78
2022/04/15 17:31:27;;;;;;;5.80;4.50;;;;;;;;;;4952838;28;20441;-78
2022/04/15 17:33:53;;;;;;;6.20;4.97;;;;;;;;;;4953537;29;20261;-78
2022/04/15 17:36:18;;;;;;;5.87;5.30;;;6.30;96.30;;;;;;4953492;29;20410;-79
2022/04/15 17:38:44;;;;;;;6.17;5.50;;;6.30;96.30;;;;;;4936530;29;20210;-79
2022/04/15 17:41:10;;;;;;;4.90;4.30;;;6.30;96.30;;;;;;4955569;28;20197;-79
2022/04/15 17:43:36;;;;;;;5.23;4.17;;;6.30;96.30;;;;;;4955706;29;20178;-78
2022/04/15 17:46:04;;;;;;;5.83;5.03;;;6.30;96.30;;;;;;4956922;28;20219;-79
2022/04/15 17:48:29;;;;;;;8.50;5.40;;;6.30;96.30;;;;;;4940997;29;20454;-79
2022/04/15 17:50:55;;;;;;;10.93;5.80;;;6.30;96.30;;;;;;4956895;28;21259;-79
2022/04/15 17:53:21;;;;;;;6.97;5.60;;;6.30;96.30;;;;;;4949404;29;20202;-78
2022/04/15 17:55:46;;;;;;;6.80;5.40;;;6.30;96.30;;;;;;4951490;29;20266;-78
2022/04/15 17:58:16;;;;;;;7.80;5.73;;;6.30;96.30;;;;;;4936774;29;20262;-77
2022/04/15 18:00:44;;;;;;;5.90;5.30;;;6.30;96.30;;;;;;4957371;29;20187;-76
2022/04/15 18:03:10;;;;;;;6.00;5.13;;;6.30;96.30;;;;;;4954610;29;20484;-79
2022/04/15 18:05:36;;;;;;;6.20;5.47;;;6.30;96.30;;;;;;4954074;29;20422;-78
2022/04/15 18:08:02;;;;;;;6.00;5.33;;;6.20;96.30;;;;;;4940956;29;20818;-80
2022/04/15 18:10:28;;;;;;;6.20;4.73;;;6.30;96.30;;;;;;4931489;29;20555;-79
2022/04/15 18:12:53;;;;;;;6.43;5.20;;;6.30;96.30;;;;;;4940426;29;20455;-80
2022/04/15 18:15:19;;;;;;;7.00;5.00;;;;;;;;;;4932545;29;20185;-80
2022/04/15 18:17:47;;;;;;;5.67;5.10;;;6.30;96.30;;;;;;4963853;28;20272;-79
2022/04/15 18:20:12;;;;;;;5.80;4.43;;;6.30;96.30;;;;;;4961879;28;20421;-78
2022/04/15 18:22:38;;;;;;;6.20;5.60;;;6.20;96.30;;;;;;4951527;29;20435;-80
2022/04/15 18:25:04;;;;;;;6.40;5.80;;;6.30;96.30;;;;;;4960153;29;20585;-79
2022/04/15 18:27:29;;;;;;;6.33;5.73;;;6.30;96.30;;;;;;4950372;28;20659;-78
2022/04/15 18:29:55;;;;;;;7.00;4.80;;;6.30;96.30;;;;;;4935459;29;20562;-79
2022/04/15 18:32:21;;;;;;;6.40;5.60;;;;;;;;;;4935273;29;20195;-77
2022/04/15 18:34:48;;;;;;;7.37;5.37;;;6.30;96.30;;;;;;4936592;29;20818;-76
2022/04/15 18:37:13;;;;;;;6.80;5.33;;;6.20;96.30;;;;;;4948065;29;20175;-77
2022/04/15 18:39:40;;;;;;;5.60;4.10;;;6.20;96.30;;;;;;4931899;29;20423;-76
2022/04/15 18:42:06;;;;;;;4.60;3.97;;;6.20;96.30;;;;;;4939424;29;20202;-74
2022/04/15 18:44:31;;;;;;;4.30;3.90;;;6.30;96.30;;;;;;4939473;29;20430;-75
2022/04/15 18:46:57;;;;;;;4.33;3.50;;;6.20;96.30;;;;;;4956566;29;20179;-78
2022/04/15 18:54:53;;;;;;;4.87;4.30;;;6.30;96.30;;;;;;4948407;29;20457;-80
2022/04/15 18:57:19;;;;;;;5.30;4.80;;;6.20;96.30;;;;;;4928282;29;20450;-75
2022/04/15 18:59:45;;;;;;;4.40;4.00;;;6.20;96.30;;;;;;4955186;29;20439;-77
2022/04/15 19:02:11;;;;;;;4.33;3.30;;;6.20;96.30;;;;;;4956468;28;20227;-75
2022/04/15 19:04:37;;;;;;;6.33;4.47;;;6.20;96.30;;;;;;4955076;28;20233;-76
2022/04/15 19:07:06;;;;;;;6.73;3.83;;;6.20;96.30;;;;;;4950324;29;20438;-76
2022/04/15 19:09:33;;;;;;;9.20;4.43;;;6.20;96.30;;;;;;4940774;29;20431;-75
2022/04/15 19:11:58;;;;;;;6.37;4.70;;;6.20;96.30;;;;;;4936662;29;20526;-76
2022/04/15 19:14:24;;;;;;;6.57;5.27;;;;;;;;;;4936874;29;20538;-76
2022/04/15 19:16:50;;;;;;;6.77;4.70;;;6.20;96.30;;;;;;4936630;29;20206;-76
2022/04/15 19:19:16;;;;;;;7.83;5.27;;;;;;;;;;4953173;29;20202;-76
2022/04/15 19:21:43;;;;;;;5.33;4.33;;;6.20;96.30;;;;;;4938431;29;20443;-74
2022/04/15 19:24:10;;;;;;;6.87;5.27;;;6.20;96.30;;;;;;4919883;29;20188;-82
2022/04/15 19:26:39;;;;;;;8.17;5.67;;;6.20;96.30;;;;;;4936824;29;20399;-74
2022/04/15 19:29:06;;;;;;;7.20;5.70;;;6.20;96.30;;;;;;4942262;29;20418;-75
2022/04/15 19:31:32;;;;;;;6.53;5.70;;;6.20;96.30;;;;;;4945906;28;20567;-74
2022/04/15 19:33:58;;;;;;;6.97;5.40;;;6.10;96.30;;;;;;4956201;28;20524;-75
2022/04/15 19:36:23;;;;;;;8.00;6.10;;;6.10;96.30;;;;;;4964532;28;20463;-76
2022/04/15 19:38:49;;;;;;;6.57;5.77;;;6.10;96.30;;;;;;4933426;29;20672;-78
2022/04/15 19:41:15;;;;;;;8.03;5.90;;;6.10;96.30;;;;;;4948953;28;20209;-75
2022/04/15 19:43:41;;;;;;;8.80;6.00;;;6.10;96.30;;;;;;4955103;28;20255;-76
2022/04/15 19:46:07;;;;;;;7.53;6.50;;;6.10;96.30;;;;;;4968270;28;20183;-75
2022/04/15 19:48:32;;;;;;;8.33;6.57;;;6.10;96.30;;;;;;4960908;28;20422;-74
2022/04/15 19:50:58;;;;;;;7.50;6.30;;;6.10;96.30;;;;;;4962458;28;20198;-76
2022/04/15 19:53:26;;;;;;;9.90;7.23;;;6.20;96.30;;;;;;4961813;28;20575;-75
2022/04/15 20:01:02;;;;;;;7.80;5.30;;;6.20;96.30;;;;;;4932447;29;20419;-74
2022/04/15 20:01:21;;;;;;;9.00;7.73;;;6.10;96.30;;;;;;4958740;28;20515;-74
2022/04/15 20:03:47;;;;;;;9.63;8.10;;;6.10;96.30;;;;;;4950670;28;20427;-74
2022/04/15 20:06:12;;;;;;;11.30;8.67;;;6.10;96.30;;;;;;4954864;28;21048;-75
2022/04/15 20:08:39;;;;;;;16.27;8.63;;;6.10;96.30;;;;;;4959942;28;20198;-74
2022/04/15 20:11:08;;;;;;;11.53;7.73;;;;;;;;;;4958484;28;20679;-77
2022/04/15 20:13:35;;;;;;;10.97;7.60;;;6.10;96.30;;;;;;4958320;28;20457;-74
2022/04/15 20:16:01;;;;;;;13.20;8.37;;;6.10;96.30;;;;;;4941818;29;20430;-76
2022/04/15 20:18:27;;;;;;;12.00;8.80;;;6.10;96.30;;;;;;4959605;28;20419;-77
2022/04/15 20:20:53;;;;;;;10.07;8.20;;;;;;;;;;4965551;28;20437;-77
2022/04/15 20:23:19;;;;;;;11.90;9.40;;;6.10;96.30;;;;;;4958476;28;20270;-76
2022/04/15 20:25:45;;;;;;;13.13;9.37;;;;;;;;;;4967941;28;20513;-78